Time;durP1;ratioP1;P1;durP2;ratioP2;P2;SDS_P1;SDS_P2;PMS_P1;PMS_P2;Temp;Humidity;BMP_temperature;BMP_pressure;BME280_temperature;BME280_humidity;BME280_pressure;Samples;Min_cycle;Max_cycle;Signal;HPM_P1;HPM_P2
2023/06/13 00:05:54;;;;;;;6.28;3.90;;;;;;;21.24;100.00;99502.03;38209297;23;20025;-75
2023/06/13 00:20:58;;;;;;;9.00;4.22;;;;;;;21.25;100.00;99502.78;38208042;23;20348;-76
2023/06/13 00:36:00;;;;;;;;;;;;;;;21.40;100.00;99561.94;38207545;23;20423;-75
2023/06/13 00:51:02;;;;;;;11.95;6.57;;;;;;;21.01;100.00;99506.06;38205686;23;19927;-76
2023/06/13 01:06:05;;;;;;;12.27;6.73;;;;;;;20.68;100.00;99513.09;38201752;23;20029;-75
2023/06/13 01:21:09;;;;;;;12.63;7.07;;;;;;;20.79;100.00;99512.31;38202601;23;20051;-75
2023/06/13 01:36:11;;;;;;;19.00;7.53;;;;;;;20.73;100.00;99506.84;38204812;23;20026;-75
2023/06/13 01:51:37;;;;;;;11.03;6.00;;;;;;;20.82;100.00;99510.56;38200779;23;20025;-76
2023/06/13 02:06:39;;;;;;;7.53;5.40;;;;;;;20.66;100.00;99515.59;38201703;23;20026;-75
2023/06/13 02:21:48;;;;;;;5.87;4.40;;;;;;;20.82;100.00;99516.09;38213302;23;20022;-75
2023/06/13 02:36:50;;;;;;;6.00;4.20;;;;;;;20.77;100.00;99529.41;38186735;23;20080;-76
2023/06/13 02:51:52;;;;;;;7.00;4.07;;;;;;;20.82;100.00;99554.72;38212076;23;20026;-76
2023/06/13 03:06:57;;;;;;;5.93;3.40;;;;;;;21.26;100.00;99585.06;38183514;23;20029;-75
2023/06/13 03:22:00;;;;;;;6.67;3.80;;;;;;;20.98;100.00;99601.63;38210956;23;20032;-75
2023/06/13 03:37:04;;;;;;;6.37;4.43;;;;;;;21.40;100.00;99614.41;38213473;23;20027;-75
2023/06/13 03:52:06;;;;;;;5.23;3.17;;;;;;;21.72;100.00;99638.97;38184063;23;20028;-75
2023/06/13 04:07:08;;;;;;;9.68;3.72;;;;;;;22.01;100.00;99649.44;38207427;23;20100;-76
2023/06/13 04:22:11;;;;;;;9.45;4.05;;;;;;;22.24;100.00;99657.63;38204375;23;20025;-76
2023/06/13 04:37:23;;;;;;;6.65;3.10;;;;;;;22.81;100.00;99700.38;38198481;23;20025;-76
2023/06/13 04:52:26;;;;;;;4.22;2.25;;;;;;;23.33;100.00;99703.81;38199291;23;20052;-74
2023/06/13 05:07:30;;;;;;;5.20;2.45;;;;;;;23.44;100.00;99708.47;38201758;23;20017;-75
2023/06/13 05:22:32;;;;;;;6.00;1.93;;;;;;;23.95;100.00;99731.72;38202582;23;20351;-75
2023/06/13 05:37:38;;;;;;;5.65;3.00;;;;;;;24.64;100.00;99733.97;38206510;23;20024;-75
2023/06/13 05:52:40;;;;;;;5.28;2.30;;;;;;;24.85;100.00;99747.31;38203855;23;20100;-76
2023/06/13 06:07:44;;;;;;;4.45;2.38;;;;;;;25.57;100.00;99751.06;38203269;23;20057;-78
2023/06/13 06:22:46;;;;;;;8.10;2.67;;;;;;;25.74;100.00;99768.25;38201482;23;20029;-75
2023/06/13 06:37:48;;;;;;;5.80;2.35;;;;;;;26.28;100.00;99809.50;38204112;23;20018;-77
2023/06/13 06:52:50;;;;;;;3.35;2.00;;;;;;;26.91;100.00;99818.19;38201921;23;20026;-75
2023/06/13 07:07:52;;;;;;;5.80;2.33;;;;;;;26.94;100.00;99811.50;38210464;23;20021;-75
2023/06/13 07:22:54;;;;;;;3.35;2.15;;;;;;;27.55;93.26;99842.88;38208672;23;20324;-76
2023/06/13 07:37:56;;;;;;;6.07;2.40;;;;;;;28.29;95.82;99826.63;38202106;23;20021;-76
2023/06/13 07:52:58;;;;;;;7.70;2.40;;;;;;;28.27;83.84;99841.13;38202664;23;20491;-75
2023/06/13 08:08:00;;;;;;;5.27;2.97;;;;;;;29.09;82.86;99838.59;38198524;23;20025;-74
2023/06/13 08:23:02;;;;;;;5.20;2.20;;;;;;;29.49;79.64;99848.06;38203439;23;20025;-78
2023/06/13 08:38:04;;;;;;;8.52;2.88;;;;;;;30.04;76.17;99850.38;38200679;23;20024;-78
2023/06/13 08:53:08;;;;;;;3.80;2.50;;;;;;;30.57;74.19;99843.97;38172407;23;20194;-77
2023/06/13 09:08:11;;;;;;;4.35;2.35;;;;;;;31.10;71.77;99835.38;38196770;23;20069;-79
2023/06/13 09:23:32;;;;;;;10.03;2.57;;;;;;;31.69;67.69;99834.13;38181220;23;20127;-77
2023/06/13 09:38:36;;;;;;;6.68;2.13;;;;;;;31.99;64.44;99825.47;38200750;23;20040;-76
2023/06/13 09:53:39;;;;;;;3.00;2.00;;;;;;;32.24;63.97;99841.56;38200969;23;20112;-76
2023/06/13 10:08:41;;;;;;;6.50;1.92;;;;;;;33.02;59.93;99832.47;38197103;23;20029;-78
2023/06/13 10:23:46;;;;;;;5.63;2.30;;;;;;;34.03;57.35;99843.19;38198545;23;20026;-78
2023/06/13 10:39:09;;;;;;;12.50;3.15;;;;;;;33.65;52.37;99828.97;38205493;23;20018;-76
2023/06/13 10:54:13;;;;;;;4.15;2.40;;;;;;;33.29;56.01;99810.78;38211683;23;20463;-77
2023/06/13 11:09:23;;;;;;;6.60;2.05;;;;;;;34.17;52.34;99787.94;38211279;23;20033;-76
2023/06/13 11:24:31;;;;;;;5.13;3.45;;;;;;;33.01;54.79;99772.69;38181475;23;20080;-74
2023/06/13 11:39:54;;;;;;;9.45;2.25;;;;;;;32.23;59.15;99756.59;38203585;23;20054;-75
2023/06/13 11:55:19;;;;;;;;;;;;;;;31.86;61.14;99759.19;38207049;23;20033;-76
2023/06/13 12:10:21;;;;;;;4.93;2.97;;;;;;;30.89;62.77;99750.09;38207005;23;20316;-78
2023/06/13 12:25:27;;;;;;;4.80;2.10;;;;;;;30.48;64.85;99743.72;38209036;23;20053;-80
2023/06/13 12:40:38;;;;;;;6.45;2.38;;;;;;;30.47;68.43;99733.84;38206700;23;20149;-79
2023/06/13 12:55:43;;;;;;;3.80;2.37;;;;;;;31.15;64.88;99721.59;38201839;23;20282;-76
2023/06/13 13:10:48;;;;;;;5.30;2.55;;;;;;;30.95;62.87;99714.19;38206860;23;20032;-74
2023/06/13 13:25:50;;;;;;;7.13;3.30;;;;;;;30.69;65.94;99702.22;38203349;23;20025;-75
2023/06/13 13:40:53;;;;;;;4.95;2.03;;;;;;;31.04;65.05;99702.38;38203546;23;20029;-73
2023/06/13 13:55:56;;;;;;;3.33;2.20;;;;;;;31.49;63.68;99699.25;38203597;23;20024;-75
2023/06/13 14:10:59;;;;;;;6.72;2.20;;;;;;;31.26;61.44;99698.69;38207602;23;20036;-75
2023/06/13 14:26:01;;;;;;;6.45;2.30;;;;;;;31.33;61.17;99686.66;38216313;23;20021;-78
2023/06/13 14:41:03;;;;;;;5.97;2.45;;;;;;;30.97;61.99;99683.53;38215980;23;20025;-76
2023/06/13 14:56:06;;;;;;;5.05;2.25;;;;;;;30.88;61.34;99681.38;38216294;23;20152;-80
2023/06/13 15:11:10;;;;;;;3.75;1.90;;;;;;;30.67;63.10;99690.09;38206762;23;20033;-76
2023/06/13 15:26:12;;;;;;;5.18;2.47;;;;;;;30.40;63.21;99689.81;38182114;23;20018;-76
2023/06/13 15:41:15;;;;;;;4.70;2.60;;;;;;;30.34;66.75;99692.06;38203940;23;20017;-75
2023/06/13 15:56:17;;;;;;;5.28;3.22;;;;;;;30.19;69.25;99707.63;38203251;23;20021;-77
2023/06/13 16:11:19;;;;;;;12.70;5.10;;;;;;;29.95;72.10;99719.41;38202780;23;20084;-76
2023/06/13 16:26:21;;;;;;;8.83;3.00;;;;;;;29.85;74.41;99712.88;38203732;23;20255;-76
2023/06/13 16:41:23;;;;;;;;;;;;;;;29.76;77.30;99708.59;38211044;23;20052;-77
2023/06/13 16:56:25;;;;;;;3.88;2.40;;;;;;;29.16;79.75;99714.91;38208240;23;19956;-77
2023/06/13 17:11:27;;;;;;;11.87;5.47;;;;;;;28.85;83.20;99720.44;38205262;23;20025;-77
2023/06/13 17:26:29;;;;;;;9.33;3.80;;;;;;;28.55;88.78;99725.16;38203974;23;20048;-78
2023/06/13 17:41:31;;;;;;;8.43;3.97;;;;;;;28.44;90.40;99726.22;38205081;23;20392;-75
2023/06/13 17:56:33;;;;;;;7.40;3.67;;;;;;;28.30;93.30;99733.22;38204473;23;20024;-74
2023/06/13 18:11:37;;;;;;;4.25;2.63;;;;;;;28.07;95.64;99733.81;38202003;23;20116;-76
2023/06/13 18:26:39;;;;;;;8.20;3.35;;;;;;;27.92;96.10;99733.72;38200580;23;20343;-77
2023/06/13 18:41:41;;;;;;;5.43;2.43;;;;;;;27.68;99.75;99720.91;38183693;23;20032;-77
2023/06/13 18:56:45;;;;;;;6.03;2.67;;;;;;;27.58;100.00;99705.22;38193701;23;20025;-78
2023/06/13 19:11:47;;;;;;;9.32;5.45;;;;;;;27.28;100.00;99698.06;38198212;23;20026;-77
2023/06/13 19:26:49;;;;;;;9.67;2.80;;;;;;;27.29;100.00;99698.81;38201507;23;20451;-77
2023/06/13 19:41:51;;;;;;;8.40;2.83;;;;;;;27.07;100.00;99681.34;38198546;23;20464;-76
2023/06/13 19:56:54;;;;;;;6.35;3.05;;;;;;;26.89;100.00;99687.84;38196507;23;20021;-78
2023/06/13 20:11:56;;;;;;;3.17;2.23;;;;;;;26.79;100.00;99684.75;38193584;23;20226;-76
2023/06/13 20:27:00;;;;;;;5.20;3.03;;;;;;;26.63;100.00;99693.47;38165531;23;20025;-76
2023/06/13 20:42:10;;;;;;;7.67;3.00;;;;;;;26.46;100.00;99652.06;38193207;23;20029;-77
2023/06/13 20:57:12;;;;;;;5.53;3.47;;;;;;;26.04;100.00;99663.03;38186680;23;20026;-75
2023/06/13 21:12:15;;;;;;;9.52;4.88;;;;;;;25.86;100.00;99652.78;38188601;23;20348;-76
2023/06/13 21:27:17;;;;;;;7.27;2.63;;;;;;;25.83;100.00;99631.63;38189017;23;20467;-75
2023/06/13 21:42:19;;;;;;;5.93;3.20;;;;;;;25.51;100.00;99617.06;38187854;23;20021;-76
2023/06/13 21:57:21;;;;;;;5.88;3.53;;;;;;;25.33;100.00;99613.81;38190712;23;20021;-75
2023/06/13 22:12:29;;;;;;;3.90;2.65;;;;;;;25.18;100.00;99613.56;38199794;23;20029;-75
2023/06/13 22:27:31;;;;;;;15.27;10.07;;;;;;;25.01;100.00;99605.53;38200710;23;20025;-75
2023/06/13 22:42:34;;;;;;;4.55;2.78;;;;;;;25.13;100.00;99617.19;38210726;23;20029;-75
2023/06/13 22:57:36;;;;;;;6.05;2.70;;;;;;;24.87;100.00;99628.19;38185056;23;20092;-75
2023/06/13 23:12:38;;;;;;;3.88;2.78;;;;;;;24.91;100.00;99623.84;38183489;23;20096;-77
2023/06/13 23:27:41;;;;;;;5.38;2.53;;;;;;;24.69;100.00;99627.69;38180230;23;20432;-74
2023/06/13 23:42:43;;;;;;;6.65;2.97;;;;;;;24.67;100.00;99627.47;38205503;23;20025;-75
2023/06/13 23:57:45;;;;;;;6.75;3.25;;;;;;;24.60;100.00;99627.31;38181717;23;20018;-75
